sensor_id;sensor_type;location;lat;lon;timestamp;pressure;altitude;pressure_sealevel;temperature;humidity
69836;BME280;57132;51.972;4.450;2023-04-26T00:01:35;101941.66;;;2.19;100.00
69836;BME280;57132;51.972;4.450;2023-04-26T00:04:00;101942.63;;;2.13;100.00
69836;BME280;57132;51.972;4.450;2023-04-26T00:06:27;101943.56;;;2.11;100.00
69836;BME280;57132;51.972;4.450;2023-04-26T00:08:52;101943.66;;;2.06;100.00
69836;BME280;57132;51.972;4.450;2023-04-26T00:11:17;101942.75;;;2.06;100.00
69836;BME280;57132;51.972;4.450;2023-04-26T00:13:43;101933.16;;;2.02;100.00
69836;BME280;57132;51.972;4.450;2023-04-26T00:16:08;101935.88;;;1.99;100.00
69836;BME280;57132;51.972;4.450;2023-04-26T00:18:33;101939.47;;;1.94;100.00
69836;BME280;57132;51.972;4.450;2023-04-26T00:21:00;101931.69;;;1.85;100.00
69836;BME280;57132;51.972;4.450;2023-04-26T00:23:25;101933.63;;;1.76;100.00
69836;BME280;57132;51.972;4.450;2023-04-26T00:25:51;101938.13;;;1.69;100.00
69836;BME280;57132;51.972;4.450;2023-04-26T00:28:16;101934.72;;;1.62;100.00
69836;BME280;57132;51.972;4.450;2023-04-26T00:30:41;101932.19;;;1.56;100.00
69836;BME280;57132;51.972;4.450;2023-04-26T00:33:11;101937.53;;;1.52;100.00
69836;BME280;57132;51.972;4.450;2023-04-26T00:35:37;101934.97;;;1.47;100.00
69836;BME280;57132;51.972;4.450;2023-04-26T00:38:02;101934.03;;;1.51;100.00
69836;BME280;57132;51.972;4.450;2023-04-26T00:40:29;101936.59;;;1.56;100.00
69836;BME280;57132;51.972;4.450;2023-04-26T00:42:57;101934.00;;;1.53;100.00
69836;BME280;57132;51.972;4.450;2023-04-26T00:45:23;101940.22;;;1.48;100.00
69836;BME280;57132;51.972;4.450;2023-04-26T00:47:49;101939.38;;;1.45;100.00
69836;BME280;57132;51.972;4.450;2023-04-26T00:50:15;101938.53;;;1.44;100.00
69836;BME280;57132;51.972;4.450;2023-04-26T00:52:40;101937.69;;;1.41;100.00
69836;BME280;57132;51.972;4.450;2023-04-26T00:55:06;101934.28;;;1.36;100.00
69836;BME280;57132;51.972;4.450;2023-04-26T00:57:32;101941.38;;;1.31;100.00
69836;BME280;57132;51.972;4.450;2023-04-26T00:59:57;101930.94;;;1.25;100.00
69836;BME280;57132;51.972;4.450;2023-04-26T01:02:22;101936.16;;;1.26;100.00
69836;BME280;57132;51.972;4.450;2023-04-26T01:04:48;101933.53;;;1.28;100.00
69836;BME280;57132;51.972;4.450;2023-04-26T01:07:13;101936.19;;;1.25;100.00
69836;BME280;57132;51.972;4.450;2023-04-26T01:09:39;101931.00;;;1.18;100.00
69836;BME280;57132;51.972;4.450;2023-04-26T01:12:06;101933.75;;;1.11;100.00
69836;BME280;57132;51.972;4.450;2023-04-26T01:14:33;101936.47;;;1.05;100.00
69836;BME280;57132;51.972;4.450;2023-04-26T01:17:01;101929.44;;;1.05;100.00
69836;BME280;57132;51.972;4.450;2023-04-26T01:19:27;101932.03;;;1.08;100.00
69836;BME280;57132;51.972;4.450;2023-04-26T01:21:53;101939.06;;;1.06;100.00
69836;BME280;57132;51.972;4.450;2023-04-26T01:24:18;101932.97;;;1.04;100.00
69836;BME280;57132;51.972;4.450;2023-04-26T01:26:44;101933.91;;;1.00;100.00
69836;BME280;57132;51.972;4.450;2023-04-26T01:29:14;101937.44;;;0.99;100.00
69836;BME280;57132;51.972;4.450;2023-04-26T01:31:39;101935.69;;;0.98;100.00
69836;BME280;57132;51.972;4.450;2023-04-26T01:34:05;101936.56;;;0.97;100.00
69836;BME280;57132;51.972;4.450;2023-04-26T01:36:30;101929.56;;;0.99;100.00
69836;BME280;57132;51.972;4.450;2023-04-26T01:38:56;101929.56;;;0.97;100.00
69836;BME280;57132;51.972;4.450;2023-04-26T01:41:22;101928.75;;;0.92;100.00
69836;BME280;57132;51.972;4.450;2023-04-26T01:43:48;101926.13;;;0.91;100.00
69836;BME280;57132;51.972;4.450;2023-04-26T01:46:14;101930.53;;;0.90;100.00
69836;BME280;57132;51.972;4.450;2023-04-26T01:48:39;101928.78;;;0.89;100.00
69836;BME280;57132;51.972;4.450;2023-04-26T01:51:04;101928.75;;;0.91;100.00
69836;BME280;57132;51.972;4.450;2023-04-26T01:53:30;101934.88;;;0.93;100.00
69836;BME280;57132;51.972;4.450;2023-04-26T01:55:55;101931.31;;;0.97;100.00
69836;BME280;57132;51.972;4.450;2023-04-26T01:58:21;101929.47;;;1.02;100.00
69836;BME280;57132;51.972;4.450;2023-04-26T02:00:46;101928.53;;;1.08;100.00
69836;BME280;57132;51.972;4.450;2023-04-26T02:03:11;101918.78;;;1.14;100.00
69836;BME280;57132;51.972;4.450;2023-04-26T02:05:37;101927.44;;;1.22;100.00
69836;BME280;57132;51.972;4.450;2023-04-26T02:08:02;101926.50;;;1.28;100.00
69836;BME280;57132;51.972;4.450;2023-04-26T02:10:28;101929.09;;;1.31;100.00
69836;BME280;57132;51.972;4.450;2023-04-26T02:12:54;101932.53;;;1.35;100.00
69836;BME280;57132;51.972;4.450;2023-04-26T02:15:19;101929.84;;;1.39;100.00
69836;BME280;57132;51.972;4.450;2023-04-26T02:17:45;101928.00;;;1.44;100.00
69836;BME280;57132;51.972;4.450;2023-04-26T02:20:11;101927.06;;;1.48;100.00
69836;BME280;57132;51.972;4.450;2023-04-26T02:22:36;101919.13;;;1.50;100.00
69836;BME280;57132;51.972;4.450;2023-04-26T02:25:02;101920.84;;;1.53;100.00
69836;BME280;57132;51.972;4.450;2023-04-26T02:27:27;101925.22;;;1.54;100.00
69836;BME280;57132;51.972;4.450;2023-04-26T02:29:52;101918.13;;;1.59;100.00
69836;BME280;57132;51.972;4.450;2023-04-26T02:32:18;101921.56;;;1.62;100.00
69836;BME280;57132;51.972;4.450;2023-04-26T02:34:43;101915.38;;;1.65;100.00
69836;BME280;57132;51.972;4.450;2023-04-26T02:37:09;101907.47;;;1.66;100.00
69836;BME280;57132;51.972;4.450;2023-04-26T02:39:34;101908.41;;;1.64;100.00
69836;BME280;57132;51.972;4.450;2023-04-26T02:42:00;101910.19;;;1.60;100.00
69836;BME280;57132;51.972;4.450;2023-04-26T02:44:28;101904.97;;;1.57;100.00
69836;BME280;57132;51.972;4.450;2023-04-26T02:46:55;101912.88;;;1.57;100.00
69836;BME280;57132;51.972;4.450;2023-04-26T02:49:20;101904.06;;;1.58;100.00
69836;BME280;57132;51.972;4.450;2023-04-26T02:51:45;101906.72;;;1.58;100.00
69836;BME280;57132;51.972;4.450;2023-04-26T02:54:11;101908.50;;;1.56;100.00
69836;BME280;57132;51.972;4.450;2023-04-26T02:56:36;101899.84;;;1.50;100.00
69836;BME280;57132;51.972;4.450;2023-04-26T02:59:01;101899.03;;;1.46;100.00
69836;BME280;57132;51.972;4.450;2023-04-26T03:01:27;101900.78;;;1.47;100.00
69836;BME280;57132;51.972;4.450;2023-04-26T03:03:53;101906.78;;;1.54;100.00
69836;BME280;57132;51.972;4.450;2023-04-26T03:06:18;101904.13;;;1.57;100.00
69836;BME280;57132;51.972;4.450;2023-04-26T03:08:43;101902.31;;;1.60;100.00
69836;BME280;57132;51.972;4.450;2023-04-26T03:11:09;101904.91;;;1.62;100.00
69836;BME280;57132;51.972;4.450;2023-04-26T03:13:34;101899.59;;;1.65;100.00
69836;BME280;57132;51.972;4.450;2023-04-26T03:16:00;101899.56;;;1.68;100.00
69836;BME280;57132;51.972;4.450;2023-04-26T03:18:25;101898.66;;;1.69;100.00
69836;BME280;57132;51.972;4.450;2023-04-26T03:20:51;101901.28;;;1.69;100.00
69836;BME280;57132;51.972;4.450;2023-04-26T03:23:16;101904.72;;;1.72;100.00
69836;BME280;57132;51.972;4.450;2023-04-26T03:25:42;101898.50;;;1.77;100.00
69836;BME280;57132;51.972;4.450;2023-04-26T03:28:07;101901.91;;;1.83;100.00
69836;BME280;57132;51.972;4.450;2023-04-26T03:30:32;101888.72;;;1.86;100.00
69836;BME280;57132;51.972;4.450;2023-04-26T03:32:58;101893.03;;;1.89;100.00
69836;BME280;57132;51.972;4.450;2023-04-26T03:35:23;101889.50;;;1.90;100.00
69836;BME280;57132;51.972;4.450;2023-04-26T03:37:48;101890.44;;;1.86;100.00
69836;BME280;57132;51.972;4.450;2023-04-26T03:40:14;101893.22;;;1.78;100.00
69836;BME280;57132;51.972;4.450;2023-04-26T03:42:41;101900.38;;;1.71;100.00
69836;BME280;57132;51.972;4.450;2023-04-26T03:45:08;101897.00;;;1.62;100.00
69836;BME280;57132;51.972;4.450;2023-04-26T03:47:33;101885.72;;;1.55;100.00
69836;BME280;57132;51.972;4.450;2023-04-26T03:49:59;101881.47;;;1.48;100.00
69836;BME280;57132;51.972;4.450;2023-04-26T03:52:24;101879.88;;;1.38;100.00
69836;BME280;57132;51.972;4.450;2023-04-26T03:54:49;101881.78;;;1.28;100.00
69836;BME280;57132;51.972;4.450;2023-04-26T03:57:15;101880.06;;;1.26;100.00
69836;BME280;57132;51.972;4.450;2023-04-26T03:59:40;101881.03;;;1.18;100.00
69836;BME280;57132;51.972;4.450;2023-04-26T04:02:06;101875.09;;;1.07;100.00
69836;BME280;57132;51.972;4.450;2023-04-26T04:04:31;101874.34;;;0.99;100.00
69836;BME280;57132;51.972;4.450;2023-04-26T04:06:57;101873.53;;;0.94;100.00
69836;BME280;57132;51.972;4.450;2023-04-26T04:09:23;101883.97;;;1.00;100.00
69836;BME280;57132;51.972;4.450;2023-04-26T04:11:48;101877.72;;;1.07;100.00
69836;BME280;57132;51.972;4.450;2023-04-26T04:14:13;101888.97;;;1.17;100.00
69836;BME280;57132;51.972;4.450;2023-04-26T04:16:39;101887.97;;;1.24;100.00
69836;BME280;57132;51.972;4.450;2023-04-26T04:19:04;101889.69;;;1.28;100.00
69836;BME280;57132;51.972;4.450;2023-04-26T04:21:29;101888.69;;;1.34;100.00
69836;BME280;57132;51.972;4.450;2023-04-26T04:23:56;101885.03;;;1.42;100.00
69836;BME280;57132;51.972;4.450;2023-04-26T04:26:21;101880.47;;;1.54;100.00
69836;BME280;57132;51.972;4.450;2023-04-26T04:28:46;101888.25;;;1.63;100.00
69836;BME280;57132;51.972;4.450;2023-04-26T04:31:13;101891.63;;;1.69;100.00
69836;BME280;57132;51.972;4.450;2023-04-26T04:33:38;101895.97;;;1.72;100.00
69836;BME280;57132;51.972;4.450;2023-04-26T04:36:04;101893.31;;;1.73;100.00
69836;BME280;57132;51.972;4.450;2023-04-26T04:38:31;101900.31;;;1.75;100.00
69836;BME280;57132;51.972;4.450;2023-04-26T04:40:56;101895.06;;;1.73;100.00
69836;BME280;57132;51.972;4.450;2023-04-26T04:43:22;101894.19;;;1.72;100.00
69836;BME280;57132;51.972;4.450;2023-04-26T04:45:47;101895.16;;;1.68;100.00
69836;BME280;57132;51.972;4.450;2023-04-26T04:48:16;101899.63;;;1.63;100.00
69836;BME280;57132;51.972;4.450;2023-04-26T04:50:42;101897.00;;;1.63;100.00
69836;BME280;57132;51.972;4.450;2023-04-26T04:53:07;101897.88;;;1.64;100.00
69836;BME280;57132;51.972;4.450;2023-04-26T04:55:33;101896.88;;;1.71;100.00
69836;BME280;57132;51.972;4.450;2023-04-26T04:57:59;101901.88;;;1.85;100.00
69836;BME280;57132;51.972;4.450;2023-04-26T05:00:25;101901.28;;;2.17;100.00
69836;BME280;57132;51.972;4.450;2023-04-26T05:02:51;101908.47;;;3.70;100.00
69836;BME280;57132;51.972;4.450;2023-04-26T05:05:16;101903.25;;;4.94;100.00
69836;BME280;57132;51.972;4.450;2023-04-26T05:07:42;101903.78;;;5.34;100.00
69836;BME280;57132;51.972;4.450;2023-04-26T05:10:07;101898.59;;;5.03;100.00
69836;BME280;57132;51.972;4.450;2023-04-26T05:12:33;101899.25;;;4.81;100.00
69836;BME280;57132;51.972;4.450;2023-04-26T05:14:59;101894.50;;;4.92;100.00
69836;BME280;57132;51.972;4.450;2023-04-26T05:17:25;101907.22;;;5.09;100.00
69836;BME280;57132;51.972;4.450;2023-04-26T05:19:50;101904.25;;;5.20;100.00
69836;BME280;57132;51.972;4.450;2023-04-26T05:22:15;101903.63;;;5.38;100.00
69836;BME280;57132;51.972;4.450;2023-04-26T05:24:46;101907.94;;;5.42;100.00
69836;BME280;57132;51.972;4.450;2023-04-26T05:27:12;101906.25;;;5.40;100.00
69836;BME280;57132;51.972;4.450;2023-04-26T05:29:37;101911.59;;;5.38;100.00
69836;BME280;57132;51.972;4.450;2023-04-26T05:32:03;101915.16;;;5.37;100.00
69836;BME280;57132;51.972;4.450;2023-04-26T05:34:28;101917.63;;;5.43;100.00
69836;BME280;57132;51.972;4.450;2023-04-26T05:36:54;101914.66;;;5.53;100.00
69836;BME280;57132;51.972;4.450;2023-04-26T05:39:19;101912.06;;;5.51;100.00
69836;BME280;57132;51.972;4.450;2023-04-26T05:41:45;101925.06;;;5.59;100.00
69836;BME280;57132;51.972;4.450;2023-04-26T05:44:12;101917.09;;;5.85;100.00
69836;BME280;57132;51.972;4.450;2023-04-26T05:46:37;101913.81;;;6.30;100.00
69836;BME280;57132;51.972;4.450;2023-04-26T05:49:03;101921.38;;;6.66;100.00
69836;BME280;57132;51.972;4.450;2023-04-26T05:51:28;101922.72;;;7.00;100.00
69836;BME280;57132;51.972;4.450;2023-04-26T05:53:53;101914.88;;;6.97;100.00
69836;BME280;57132;51.972;4.450;2023-04-26T05:56:19;101921.41;;;6.64;100.00
69836;BME280;57132;51.972;4.450;2023-04-26T05:58:45;101925.81;;;6.65;100.00
69836;BME280;57132;51.972;4.450;2023-04-26T06:01:10;101930.06;;;6.46;100.00
69836;BME280;57132;51.972;4.450;2023-04-26T06:03:36;101923.28;;;6.37;100.00
69836;BME280;57132;51.972;4.450;2023-04-26T06:06:02;101936.25;;;6.45;100.00
69836;BME280;57132;51.972;4.450;2023-04-26T06:08:27;101934.94;;;6.82;100.00
69836;BME280;57132;51.972;4.450;2023-04-26T06:10:52;101942.41;;;7.39;100.00
69836;BME280;57132;51.972;4.450;2023-04-26T06:13:18;101945.28;;;7.57;100.00
69836;BME280;57132;51.972;4.450;2023-04-26T06:15:44;101949.94;;;7.50;100.00
69836;BME280;57132;51.972;4.450;2023-04-26T06:18:09;101949.25;;;7.23;100.00
69836;BME280;57132;51.972;4.450;2023-04-26T06:20:34;101947.47;;;7.00;100.00
69836;BME280;57132;51.972;4.450;2023-04-26T06:23:00;101947.53;;;6.99;100.00
69836;BME280;57132;51.972;4.450;2023-04-26T06:25:25;101952.66;;;7.27;100.00
69836;BME280;57132;51.972;4.450;2023-04-26T06:27:50;101955.22;;;7.94;100.00
69836;BME280;57132;51.972;4.450;2023-04-26T06:30:16;101952.59;;;8.14;100.00
69836;BME280;57132;51.972;4.450;2023-04-26T06:32:42;101959.91;;;8.09;100.00
69836;BME280;57132;51.972;4.450;2023-04-26T06:35:08;101953.78;;;8.07;100.00
69836;BME280;57132;51.972;4.450;2023-04-26T06:37:34;101956.72;;;8.22;100.00
69836;BME280;57132;51.972;4.450;2023-04-26T06:39:59;101950.94;;;8.32;100.00
69836;BME280;57132;51.972;4.450;2023-04-26T06:42:26;101944.66;;;8.55;100.00
69836;BME280;57132;51.972;4.450;2023-04-26T06:44:51;101953.25;;;8.81;100.00
69836;BME280;57132;51.972;4.450;2023-04-26T06:47:16;101947.81;;;9.03;100.00
69836;BME280;57132;51.972;4.450;2023-04-26T06:49:42;101947.28;;;9.51;100.00
69836;BME280;57132;51.972;4.450;2023-04-26T06:52:07;101940.34;;;10.01;100.00
69836;BME280;57132;51.972;4.450;2023-04-26T06:54:32;101942.16;;;9.83;100.00
69836;BME280;57132;51.972;4.450;2023-04-26T06:56:58;101938.81;;;9.78;100.00
69836;BME280;57132;51.972;4.450;2023-04-26T06:59:23;101939.88;;;9.93;99.82
69836;BME280;57132;51.972;4.450;2023-04-26T07:01:48;101946.44;;;9.68;97.02
69836;BME280;57132;51.972;4.450;2023-04-26T07:04:14;101944.13;;;9.24;95.03
69836;BME280;57132;51.972;4.450;2023-04-26T07:06:41;101943.63;;;8.97;100.00
69836;BME280;57132;51.972;4.450;2023-04-26T07:09:06;101944.31;;;8.82;100.00
69836;BME280;57132;51.972;4.450;2023-04-26T07:11:32;101942.69;;;9.72;99.17
69836;BME280;57132;51.972;4.450;2023-04-26T07:13:57;101948.81;;;11.73;88.11
69836;BME280;57132;51.972;4.450;2023-04-26T07:16:23;101957.38;;;12.54;74.56
69836;BME280;57132;51.972;4.450;2023-04-26T07:18:48;101954.91;;;12.66;67.99
69836;BME280;57132;51.972;4.450;2023-04-26T07:21:14;101952.41;;;12.77;68.91
69836;BME280;57132;51.972;4.450;2023-04-26T07:23:39;101963.22;;;13.04;60.25
69836;BME280;57132;51.972;4.450;2023-04-26T07:26:05;101959.16;;;12.25;62.84
69836;BME280;57132;51.972;4.450;2023-04-26T07:28:30;101955.03;;;12.34;61.04
69836;BME280;57132;51.972;4.450;2023-04-26T07:30:57;101953.56;;;12.14;64.57
69836;BME280;57132;51.972;4.450;2023-04-26T07:33:22;101955.88;;;11.58;64.71
69836;BME280;57132;51.972;4.450;2023-04-26T07:35:54;101954.72;;;9.98;72.12
69836;BME280;57132;51.972;4.450;2023-04-26T07:38:20;101957.38;;;8.88;84.07
69836;BME280;57132;51.972;4.450;2023-04-26T07:40:46;101971.00;;;8.19;92.61
69836;BME280;57132;51.972;4.450;2023-04-26T07:43:11;101961.19;;;7.79;96.84
69836;BME280;57132;51.972;4.450;2023-04-26T07:45:37;101961.06;;;7.60;99.08
69836;BME280;57132;51.972;4.450;2023-04-26T07:48:03;101963.84;;;7.35;100.00
69836;BME280;57132;51.972;4.450;2023-04-26T07:50:28;101962.63;;;7.20;100.00
69836;BME280;57132;51.972;4.450;2023-04-26T07:52:55;101957.13;;;7.03;100.00
69836;BME280;57132;51.972;4.450;2023-04-26T07:55:21;101968.09;;;6.94;100.00
69836;BME280;57132;51.972;4.450;2023-04-26T07:57:46;101954.34;;;7.06;100.00
69836;BME280;57132;51.972;4.450;2023-04-26T08:00:12;101960.41;;;7.09;100.00
69836;BME280;57132;51.972;4.450;2023-04-26T08:02:38;101954.81;;;7.17;100.00
69836;BME280;57132;51.972;4.450;2023-04-26T08:05:04;101965.06;;;7.26;99.85
69836;BME280;57132;51.972;4.450;2023-04-26T08:07:29;101969.66;;;7.45;100.00
69836;BME280;57132;51.972;4.450;2023-04-26T08:09:55;101969.03;;;7.60;98.54
69836;BME280;57132;51.972;4.450;2023-04-26T08:12:21;101974.47;;;7.79;96.45
69836;BME280;57132;51.972;4.450;2023-04-26T08:14:46;101973.59;;;8.00;99.42
69836;BME280;57132;51.972;4.450;2023-04-26T08:17:12;101966.63;;;8.18;92.16
69836;BME280;57132;51.972;4.450;2023-04-26T08:19:37;101970.13;;;8.41;87.23
69836;BME280;57132;51.972;4.450;2023-04-26T08:22:03;101969.00;;;8.46;81.35
69836;BME280;57132;51.972;4.450;2023-04-26T08:24:28;101968.56;;;8.35;76.86
69836;BME280;57132;51.972;4.450;2023-04-26T08:26:54;101976.22;;;8.43;77.67
69836;BME280;57132;51.972;4.450;2023-04-26T08:29:21;101971.97;;;8.38;77.37
69836;BME280;57132;51.972;4.450;2023-04-26T08:31:47;101969.41;;;8.37;86.04
69836;BME280;57132;51.972;4.450;2023-04-26T08:34:12;101975.50;;;8.39;85.19
69836;BME280;57132;51.972;4.450;2023-04-26T08:36:38;101966.94;;;8.31;79.16
69836;BME280;57132;51.972;4.450;2023-04-26T08:39:04;101965.22;;;8.30;80.80
69836;BME280;57132;51.972;4.450;2023-04-26T08:41:35;101961.91;;;8.25;83.28
69836;BME280;57132;51.972;4.450;2023-04-26T08:44:03;101955.75;;;8.24;80.99
69836;BME280;57132;51.972;4.450;2023-04-26T08:46:35;101960.25;;;8.22;79.92
69836;BME280;57132;51.972;4.450;2023-04-26T08:49:19;101965.03;;;8.14;77.31
69836;BME280;57132;51.972;4.450;2023-04-26T08:51:51;101964.28;;;8.10;82.75
69836;BME280;57132;51.972;4.450;2023-04-26T08:54:18;101970.53;;;8.09;87.27
69836;BME280;57132;51.972;4.450;2023-04-26T08:56:45;101967.59;;;7.95;90.21
69836;BME280;57132;51.972;4.450;2023-04-26T08:59:12;101971.94;;;7.76;93.71
69836;BME280;57132;51.972;4.450;2023-04-26T09:01:42;101958.16;;;7.66;97.50
69836;BME280;57132;51.972;4.450;2023-04-26T09:04:10;101969.66;;;7.67;94.02
69836;BME280;57132;51.972;4.450;2023-04-26T09:06:36;101966.34;;;7.61;94.67
69836;BME280;57132;51.972;4.450;2023-04-26T09:09:03;101970.59;;;7.66;95.53
69836;BME280;57132;51.972;4.450;2023-04-26T09:11:52;101971.69;;;7.82;94.75
69836;BME280;57132;51.972;4.450;2023-04-26T09:14:18;101972.72;;;8.00;92.11
69836;BME280;57132;51.972;4.450;2023-04-26T09:16:43;101974.94;;;8.10;91.20
69836;BME280;57132;51.972;4.450;2023-04-26T09:19:09;101972.59;;;8.03;89.26
69836;BME280;57132;51.972;4.450;2023-04-26T09:21:41;101974.88;;;8.12;91.77
69836;BME280;57132;51.972;4.450;2023-04-26T09:24:07;101974.94;;;8.10;93.22
69836;BME280;57132;51.972;4.450;2023-04-26T09:26:32;101977.13;;;8.01;92.51
69836;BME280;57132;51.972;4.450;2023-04-26T09:31:40;101974.94;;;6.99;100.00
69836;BME280;57132;51.972;4.450;2023-04-26T09:34:05;101973.09;;;6.78;100.00
69836;BME280;57132;51.972;4.450;2023-04-26T09:36:31;101979.31;;;6.77;100.00
69836;BME280;57132;51.972;4.450;2023-04-26T09:38:57;101976.63;;;6.78;100.00
69836;BME280;57132;51.972;4.450;2023-04-26T09:41:22;101969.94;;;6.92;100.00
69836;BME280;57132;51.972;4.450;2023-04-26T09:43:49;101965.19;;;7.23;100.00
69836;BME280;57132;51.972;4.450;2023-04-26T09:46:21;101970.38;;;7.48;100.00
69836;BME280;57132;51.972;4.450;2023-04-26T09:49:00;101981.84;;;7.72;100.00
69836;BME280;57132;51.972;4.450;2023-04-26T09:51:25;101975.53;;;7.97;100.00
69836;BME280;57132;51.972;4.450;2023-04-26T09:53:51;101975.41;;;8.20;100.00
69836;BME280;57132;51.972;4.450;2023-04-26T09:56:19;101974.88;;;8.32;100.00
69836;BME280;57132;51.972;4.450;2023-04-26T10:01:16;101978.84;;;8.65;100.00
69836;BME280;57132;51.972;4.450;2023-04-26T10:03:45;101981.03;;;8.94;96.09
69836;BME280;57132;51.972;4.450;2023-04-26T10:06:14;101975.59;;;9.16;89.57
69836;BME280;57132;51.972;4.450;2023-04-26T10:08:39;101972.34;;;9.28;84.74
69836;BME280;57132;51.972;4.450;2023-04-26T10:11:05;101980.03;;;9.53;82.98
69836;BME280;57132;51.972;4.450;2023-04-26T10:13:35;101980.09;;;9.71;79.34
69836;BME280;57132;51.972;4.450;2023-04-26T10:16:01;101968.34;;;10.09;78.41
69836;BME280;57132;51.972;4.450;2023-04-26T10:18:27;101979.94;;;11.11;78.05
69836;BME280;57132;51.972;4.450;2023-04-26T10:20:56;101975.44;;;12.37;67.77
69836;BME280;57132;51.972;4.450;2023-04-26T10:23:23;101981.69;;;12.94;66.92
69836;BME280;57132;51.972;4.450;2023-04-26T10:25:50;101985.78;;;13.14;62.68
69836;BME280;57132;51.972;4.450;2023-04-26T10:29:01;101983.63;;;13.35;61.22
69836;BME280;57132;51.972;4.450;2023-04-26T10:31:02;101981.19;;;13.86;62.19
69836;BME280;57132;51.972;4.450;2023-04-26T10:33:27;101982.16;;;14.38;62.27
69836;BME280;57132;51.972;4.450;2023-04-26T10:36:12;101972.03;;;14.28;57.36
69836;BME280;57132;51.972;4.450;2023-04-26T10:41:35;101974.16;;;15.99;54.46
69836;BME280;57132;51.972;4.450;2023-04-26T10:44:38;101973.66;;;15.94;48.68
69836;BME280;57132;51.972;4.450;2023-04-26T10:47:06;101962.03;;;14.58;53.59
69836;BME280;57132;51.972;4.450;2023-04-26T10:49:45;101964.06;;;13.47;55.78
69836;BME280;57132;51.972;4.450;2023-04-26T10:52:21;101953.75;;;12.55;58.79
69836;BME280;57132;51.972;4.450;2023-04-26T10:57:16;101953.38;;;13.04;56.63
69836;BME280;57132;51.972;4.450;2023-04-26T11:05:35;101947.00;;;14.28;55.75
69836;BME280;57132;51.972;4.450;2023-04-26T11:08:28;101940.56;;;14.31;55.17
69836;BME280;57132;51.972;4.450;2023-04-26T11:13:30;101940.19;;;14.75;53.19
69836;BME280;57132;51.972;4.450;2023-04-26T11:16:01;101937.13;;;13.49;55.66
69836;BME280;57132;51.972;4.450;2023-04-26T11:18:28;101941.13;;;13.00;56.95
69836;BME280;57132;51.972;4.450;2023-04-26T11:20:54;101945.53;;;12.73;57.32
69836;BME280;57132;51.972;4.450;2023-04-26T11:23:19;101939.56;;;11.79;57.67
69836;BME280;57132;51.972;4.450;2023-04-26T11:25:46;101931.81;;;10.95;63.66
69836;BME280;57132;51.972;4.450;2023-04-26T11:28:12;101929.94;;;10.31;66.92
69836;BME280;57132;51.972;4.450;2023-04-26T11:30:38;101932.28;;;10.02;71.67
69836;BME280;57132;51.972;4.450;2023-04-26T11:33:03;101922.22;;;9.73;69.91
69836;BME280;57132;51.972;4.450;2023-04-26T11:35:32;101915.25;;;9.88;70.86
69836;BME280;57132;51.972;4.450;2023-04-26T11:37:58;101915.66;;;10.32;70.05
69836;BME280;57132;51.972;4.450;2023-04-26T11:40:27;101915.38;;;11.03;65.07
69836;BME280;57132;51.972;4.450;2023-04-26T11:42:52;101915.47;;;11.33;63.33
69836;BME280;57132;51.972;4.450;2023-04-26T11:45:17;101919.00;;;11.79;64.82
69836;BME280;57132;51.972;4.450;2023-04-26T11:47:44;101919.63;;;12.59;58.70
69836;BME280;57132;51.972;4.450;2023-04-26T11:50:10;101922.53;;;13.26;61.92
69836;BME280;57132;51.972;4.450;2023-04-26T11:52:36;101929.72;;;13.52;54.21
69836;BME280;57132;51.972;4.450;2023-04-26T11:55:04;101929.63;;;13.81;54.37
69836;BME280;57132;51.972;4.450;2023-04-26T11:57:33;101940.22;;;14.10;52.58
69836;BME280;57132;51.972;4.450;2023-04-26T12:00:13;101933.22;;;13.67;51.69
69836;BME280;57132;51.972;4.450;2023-04-26T12:02:44;101930.38;;;13.29;49.95
69836;BME280;57132;51.972;4.450;2023-04-26T12:05:19;101928.34;;;13.18;51.84
69836;BME280;57132;51.972;4.450;2023-04-26T12:07:48;101927.50;;;13.18;53.71
69836;BME280;57132;51.972;4.450;2023-04-26T12:10:18;101927.91;;;13.80;53.18
69836;BME280;57132;51.972;4.450;2023-04-26T12:12:47;101927.16;;;14.43;50.23
69836;BME280;57132;51.972;4.450;2023-04-26T12:15:13;101927.84;;;15.22;49.48
69836;BME280;57132;51.972;4.450;2023-04-26T12:17:39;101931.41;;;15.46;47.69
69836;BME280;57132;51.972;4.450;2023-04-26T12:20:09;101928.59;;;16.42;46.48
69836;BME280;57132;51.972;4.450;2023-04-26T12:22:35;101930.53;;;16.18;46.58
69836;BME280;57132;51.972;4.450;2023-04-26T12:25:05;101925.41;;;15.06;48.38
69836;BME280;57132;51.972;4.450;2023-04-26T12:27:30;101923.47;;;14.19;50.30
69836;BME280;57132;51.972;4.450;2023-04-26T12:29:56;101928.91;;;13.65;49.30
69836;BME280;57132;51.972;4.450;2023-04-26T12:32:21;101921.69;;;12.97;49.68
69836;BME280;57132;51.972;4.450;2023-04-26T12:34:47;101926.59;;;12.76;52.49
69836;BME280;57132;51.972;4.450;2023-04-26T12:37:13;101922.75;;;12.51;49.34
69836;BME280;57132;51.972;4.450;2023-04-26T12:39:38;101925.16;;;12.56;52.15
69836;BME280;57132;51.972;4.450;2023-04-26T12:42:03;101921.59;;;12.70;49.61
69836;BME280;57132;51.972;4.450;2023-04-26T12:44:29;101928.72;;;12.26;50.31
69836;BME280;57132;51.972;4.450;2023-04-26T12:46:54;101924.91;;;11.70;51.52
69836;BME280;57132;51.972;4.450;2023-04-26T12:49:20;101921.19;;;11.89;51.48
69836;BME280;57132;51.972;4.450;2023-04-26T12:51:45;101915.06;;;12.31;50.11
69836;BME280;57132;51.972;4.450;2023-04-26T12:54:10;101918.16;;;12.53;49.62
69836;BME280;57132;51.972;4.450;2023-04-26T12:56:36;101922.44;;;12.27;50.79
69836;BME280;57132;51.972;4.450;2023-04-26T12:59:07;101926.00;;;11.82;51.16
69836;BME280;57132;51.972;4.450;2023-04-26T13:01:34;101931.81;;;11.58;52.89
69836;BME280;57132;51.972;4.450;2023-04-26T13:04:00;101926.47;;;11.58;53.61
69836;BME280;57132;51.972;4.450;2023-04-26T13:06:28;101930.56;;;11.50;51.43
69836;BME280;57132;51.972;4.450;2023-04-26T13:08:53;101936.72;;;11.66;49.19